createdAt,value
2023-05-12T00:00:08.327Z,99.90
2023-05-12T00:02:58.232Z,99.90
2023-05-12T00:05:29.777Z,99.90
2023-05-12T00:07:59.836Z,99.90
2023-05-12T00:10:29.923Z,99.90
2023-05-12T00:12:59.686Z,99.90
2023-05-12T00:15:28.992Z,99.90
2023-05-12T00:17:59.006Z,99.90
2023-05-12T00:20:29.847Z,99.90
2023-05-12T00:22:59.471Z,99.90
2023-05-12T00:25:30.976Z,99.90
2023-05-12T00:28:01.409Z,99.90
2023-05-12T00:30:30.873Z,99.90
2023-05-12T00:33:00.620Z,99.90
2023-05-12T00:35:31.614Z,99.90
2023-05-12T00:38:01.223Z,99.90
2023-05-12T00:40:30.804Z,99.90
2023-05-12T00:43:00.792Z,99.90
2023-05-12T00:45:31.054Z,99.90
2023-05-12T00:48:00.983Z,99.90
2023-05-12T00:50:31.765Z,99.90
2023-05-12T00:53:02.989Z,99.90
2023-05-12T00:55:32.393Z,99.90
2023-05-12T00:58:02.436Z,99.90
2023-05-12T01:00:31.720Z,99.90
2023-05-12T01:03:01.496Z,99.90
2023-05-12T01:05:41.048Z,99.90
2023-05-12T01:08:12.263Z,99.90
2023-05-12T01:10:45.919Z,99.90
2023-05-12T01:13:15.888Z,99.90
2023-05-12T01:15:50.128Z,99.90
2023-05-12T01:18:22.857Z,99.90
2023-05-12T01:20:55.269Z,99.90
2023-05-12T01:23:30.636Z,99.90
2023-05-12T01:26:06.582Z,99.90
2023-05-12T01:28:37.382Z,99.90
2023-05-12T01:31:08.062Z,99.90
2023-05-12T01:33:38.391Z,99.90
2023-05-12T01:36:08.079Z,99.90
2023-05-12T01:38:38.060Z,99.90
2023-05-12T01:41:08.737Z,99.90
2023-05-12T01:43:38.709Z,99.90
2023-05-12T01:46:07.959Z,99.90
2023-05-12T01:48:37.892Z,99.90
2023-05-12T01:51:09.939Z,99.90
2023-05-12T01:53:39.626Z,99.90
2023-05-12T01:56:10.388Z,99.90
2023-05-12T01:58:40.059Z,99.90
2023-05-12T02:01:09.744Z,99.90
2023-05-12T02:03:39.747Z,99.90
2023-05-12T02:06:09.213Z,99.90
2023-05-12T02:08:38.944Z,99.90
2023-05-12T02:11:10.486Z,99.90
2023-05-12T02:13:40.350Z,99.90
2023-05-12T02:16:09.943Z,99.90
2023-05-12T02:18:39.632Z,99.90
2023-05-12T02:21:09.073Z,99.90
2023-05-12T02:23:38.651Z,99.90
2023-05-12T02:26:08.040Z,99.90
2023-05-12T02:28:39.166Z,99.90
2023-05-12T02:31:08.396Z,99.90
2023-05-12T02:33:38.256Z,99.90
2023-05-12T02:36:08.342Z,99.90
2023-05-12T02:38:37.996Z,99.90
2023-05-12T02:41:07.286Z,99.90
2023-05-12T02:43:38.547Z,99.90
2023-05-12T02:46:08.005Z,99.90
2023-05-12T02:48:37.671Z,99.90
2023-05-12T02:51:07.896Z,99.90
2023-05-12T02:53:38.177Z,99.90
2023-05-12T02:56:08.398Z,99.90
2023-05-12T02:58:39.496Z,99.90
2023-05-12T03:01:11.241Z,99.90
2023-05-12T03:03:41.897Z,99.90
2023-05-12T03:06:11.696Z,99.90
2023-05-12T03:08:42.015Z,99.90
2023-05-12T03:11:11.268Z,99.90
2023-05-12T03:13:42.347Z,99.90
2023-05-12T03:16:11.607Z,99.90
2023-05-12T03:18:41.204Z,99.90
2023-05-12T03:23:40.304Z,99.90
2023-05-12T03:26:09.609Z,99.90
2023-05-12T03:28:39.312Z,99.90
2023-05-12T03:31:10.482Z,99.90
2023-05-12T03:33:40.175Z,99.90
2023-05-12T03:36:09.934Z,99.90
2023-05-12T03:38:39.940Z,99.90
2023-05-12T03:41:09.871Z,99.90
2023-05-12T03:43:39.580Z,99.90
2023-05-12T03:46:10.661Z,99.90
2023-05-12T03:48:40.379Z,99.90
2023-05-12T03:51:09.725Z,99.90
2023-05-12T03:53:40.507Z,99.90
2023-05-12T03:56:10.364Z,99.90
2023-05-12T03:58:40.125Z,99.90
2023-05-12T04:01:11.088Z,99.90
2023-05-12T04:03:41.794Z,99.90
2023-05-12T04:06:11.654Z,99.90
2023-05-12T04:08:42.272Z,99.90
2023-05-12T04:11:11.605Z,99.90
2023-05-12T04:13:41.615Z,99.90
2023-05-12T04:16:12.568Z,99.90
2023-05-12T04:18:42.248Z,99.90
2023-05-12T04:21:11.733Z,99.90
2023-05-12T04:23:41.345Z,99.90
2023-05-12T04:26:10.651Z,99.90
2023-05-12T04:28:40.239Z,99.90
2023-05-12T04:31:09.601Z,99.90
2023-05-12T04:33:40.770Z,99.90
2023-05-12T04:36:11.113Z,99.90
2023-05-12T04:38:41.010Z,99.90
2023-05-12T04:41:10.255Z,99.90
2023-05-12T04:46:12.405Z,99.90
2023-05-12T04:48:43.872Z,99.90
2023-05-12T04:51:13.094Z,99.90
2023-05-12T04:53:42.781Z,99.90
2023-05-12T04:56:12.184Z,99.90
2023-05-12T04:58:41.835Z,99.90
2023-05-12T05:01:12.573Z,99.90
2023-05-12T05:03:43.909Z,99.90
2023-05-12T05:06:13.295Z,99.90
2023-05-12T05:08:42.876Z,99.90
2023-05-12T05:11:12.227Z,99.90
2023-05-12T05:13:42.373Z,99.90
2023-05-12T05:16:11.632Z,99.90
2023-05-12T05:18:46.943Z,99.90
2023-05-12T05:21:16.454Z,99.90
2023-05-12T05:23:46.487Z,99.90
2023-05-12T05:26:15.887Z,99.90
2023-05-12T05:28:45.523Z,99.90
2023-05-12T05:31:18.084Z,99.90
2023-05-12T05:33:49.498Z,99.90
2023-05-12T05:36:18.835Z,99.90
2023-05-12T05:38:48.406Z,99.90
2023-05-12T05:41:17.639Z,99.90
2023-05-12T05:43:47.208Z,99.90
2023-05-12T05:46:16.598Z,99.90
2023-05-12T05:48:46.433Z,99.90
2023-05-12T05:51:17.095Z,99.90
2023-05-12T05:53:47.050Z,99.90
2023-05-12T05:56:17.140Z,99.90
2023-05-12T05:58:46.937Z,99.90
2023-05-12T06:01:16.273Z,99.90
2023-05-12T06:03:45.991Z,99.90
2023-05-12T06:06:17.054Z,99.90
2023-05-12T06:08:46.972Z,99.90
2023-05-12T06:11:17.940Z,99.90
2023-05-12T06:13:48.040Z,99.90
2023-05-12T06:16:17.272Z,99.90
2023-05-12T06:18:46.937Z,99.90
2023-05-12T06:21:17.648Z,99.90
2023-05-12T06:23:47.625Z,99.90
2023-05-12T06:26:17.280Z,99.90
2023-05-12T06:28:47.015Z,99.90
2023-05-12T06:31:16.502Z,99.90
2023-05-12T06:33:46.404Z,99.90
2023-05-12T06:36:17.178Z,99.90
2023-05-12T06:38:46.761Z,99.90
2023-05-12T06:41:16.194Z,99.90
2023-05-12T06:43:46.230Z,99.90
2023-05-12T06:46:16.088Z,99.90
2023-05-12T06:48:45.866Z,99.90
2023-05-12T06:51:16.743Z,99.90
2023-05-12T06:53:46.365Z,99.90
2023-05-12T06:56:17.324Z,99.90
2023-05-12T06:58:48.275Z,99.90
2023-05-12T07:01:17.879Z,99.90
2023-05-12T07:03:47.820Z,99.90
2023-05-12T07:06:18.658Z,99.90
2023-05-12T07:08:48.310Z,99.90
2023-05-12T07:11:20.378Z,99.90
2023-05-12T07:13:50.831Z,99.90
2023-05-12T07:16:21.247Z,99.90
2023-05-12T07:18:51.307Z,99.90
2023-05-12T07:21:22.167Z,99.90
2023-05-12T07:23:51.861Z,99.90
2023-05-12T07:26:24.362Z,99.90
2023-05-12T07:28:54.385Z,99.90
2023-05-12T07:31:23.726Z,99.90
2023-05-12T07:33:53.953Z,99.90
2023-05-12T07:36:24.726Z,99.90
2023-05-12T07:38:54.403Z,99.90
2023-05-12T07:41:23.652Z,99.90
2023-05-12T07:43:53.244Z,99.90
2023-05-12T07:46:22.735Z,99.90
2023-05-12T07:48:52.335Z,99.90
2023-05-12T07:51:21.699Z,99.90
2023-05-12T07:53:53.381Z,99.90
2023-05-12T07:56:23.114Z,99.90
2023-05-12T07:58:52.773Z,99.50
2023-05-12T08:01:22.057Z,99.90
2023-05-12T08:03:52.464Z,99.60
2023-05-12T08:06:21.913Z,99.90
2023-05-12T08:08:53.775Z,99.90
2023-05-12T08:11:23.218Z,99.50
2023-05-12T08:13:52.991Z,99.80
2023-05-12T08:16:22.293Z,98.00
2023-05-12T08:18:52.301Z,98.00
2023-05-12T08:21:21.553Z,97.60
2023-05-12T08:23:53.092Z,97.80
2023-05-12T08:26:22.799Z,94.90
2023-05-12T08:28:52.741Z,95.70
2023-05-12T08:31:22.389Z,95.70
2023-05-12T08:34:08.651Z,95.50
2023-05-12T08:36:39.650Z,93.60
2023-05-12T08:39:11.677Z,92.50
2023-05-12T08:41:46.096Z,90.60
2023-05-12T08:44:17.293Z,91.80
2023-05-12T08:46:47.605Z,87.30
2023-05-12T08:49:21.215Z,90.00
2023-05-12T08:51:58.200Z,90.10
2023-05-12T08:54:30.705Z,90.20
2023-05-12T08:59:34.189Z,89.50
2023-05-12T09:02:06.925Z,85.90
2023-05-12T09:04:38.406Z,81.90
2023-05-12T09:07:08.741Z,83.20
2023-05-12T09:09:42.160Z,82.80
2023-05-12T09:12:17.050Z,81.30
2023-05-12T09:14:48.389Z,82.60
2023-05-12T09:17:17.525Z,80.80
2023-05-12T09:19:47.216Z,80.10
2023-05-12T09:22:17.234Z,76.40
2023-05-12T09:24:48.326Z,78.90
2023-05-12T09:27:26.478Z,72.20
2023-05-12T09:29:59.651Z,72.40
2023-05-12T09:32:33.492Z,72.40
2023-05-12T09:35:08.529Z,73.80
2023-05-12T09:37:37.810Z,73.00
2023-05-12T09:40:11.784Z,73.80
2023-05-12T09:42:43.827Z,73.70
2023-05-12T09:45:16.721Z,71.10
2023-05-12T09:47:46.400Z,70.00
2023-05-12T09:50:16.186Z,71.00
2023-05-12T09:52:45.964Z,72.10
2023-05-12T09:55:17.004Z,71.70
2023-05-12T09:57:46.966Z,71.60
2023-05-12T10:00:34.537Z,70.70
2023-05-12T10:03:13.257Z,70.50
2023-05-12T10:05:50.709Z,70.20
2023-05-12T10:08:30.624Z,68.40
2023-05-12T10:11:03.554Z,68.50
2023-05-12T10:13:34.673Z,68.70
2023-05-12T10:16:05.349Z,68.60
2023-05-12T10:18:36.609Z,69.10
2023-05-12T10:21:07.206Z,66.10
2023-05-12T10:23:38.360Z,67.60
2023-05-12T10:26:11.672Z,65.80
2023-05-12T10:28:41.514Z,64.40
2023-05-12T10:31:12.163Z,64.50
2023-05-12T10:33:41.451Z,63.90
2023-05-12T10:36:19.942Z,63.80
2023-05-12T10:38:51.371Z,63.80
2023-05-12T10:41:33.216Z,63.20
2023-05-12T10:44:03.129Z,62.00
2023-05-12T10:46:33.027Z,61.50
2023-05-12T10:49:04.577Z,59.40
2023-05-12T10:51:35.883Z,59.70
2023-05-12T10:54:08.387Z,58.60
2023-05-12T10:56:46.475Z,57.30
2023-05-12T10:59:19.225Z,54.80
2023-05-12T11:02:15.687Z,53.80
2023-05-12T11:04:51.002Z,53.60
2023-05-12T11:07:24.991Z,52.10
2023-05-12T11:09:59.118Z,51.80
2023-05-12T11:12:33.473Z,51.00
2023-05-12T11:15:04.855Z,49.00
2023-05-12T11:17:34.613Z,49.20
2023-05-12T11:20:04.382Z,48.20
2023-05-12T11:22:34.660Z,47.20
2023-05-12T11:25:12.071Z,49.60
2023-05-12T11:27:49.867Z,47.90
2023-05-12T11:30:20.028Z,46.70
2023-05-12T11:33:01.104Z,46.50
2023-05-12T11:35:33.480Z,45.40
2023-05-12T11:38:04.249Z,43.20
2023-05-12T11:40:33.588Z,44.40
2023-05-12T11:43:12.032Z,43.40
2023-05-12T11:45:41.723Z,41.90
2023-05-12T11:48:12.354Z,41.20
2023-05-12T11:50:43.240Z,42.00
2023-05-12T11:53:15.184Z,41.90
2023-05-12T11:55:51.320Z,41.20
2023-05-12T11:58:25.818Z,40.70
2023-05-12T12:00:55.597Z,39.70
2023-05-12T12:03:25.807Z,39.90
2023-05-12T12:06:03.030Z,40.10
2023-05-12T12:08:32.887Z,39.60
2023-05-12T12:11:04.455Z,39.40
2023-05-12T12:13:36.109Z,40.00
2023-05-12T12:16:05.797Z,40.00
2023-05-12T12:18:35.796Z,39.80
2023-05-12T12:21:05.257Z,40.40
2023-05-12T12:23:44.080Z,40.50
2023-05-12T12:26:21.060Z,39.50
2023-05-12T12:28:52.086Z,39.20
2023-05-12T12:31:21.377Z,40.10
2023-05-12T12:33:51.535Z,39.50
2023-05-12T12:36:20.729Z,39.20
2023-05-12T12:38:50.309Z,39.20
2023-05-12T12:41:19.574Z,39.40
2023-05-12T12:43:50.614Z,39.50
2023-05-12T12:46:20.067Z,38.80
2023-05-12T12:48:49.638Z,39.00
2023-05-12T12:51:19.240Z,39.00
2023-05-12T12:53:48.847Z,38.40
2023-05-12T12:56:18.605Z,39.60
2023-05-12T12:58:48.186Z,39.00
2023-05-12T13:01:19.449Z,38.70
2023-05-12T13:03:49.220Z,38.10
2023-05-12T13:06:18.556Z,38.80
2023-05-12T13:08:49.498Z,39.10
2023-05-12T13:11:18.831Z,39.80
2023-05-12T13:13:48.438Z,39.00
2023-05-12T13:16:19.443Z,39.40
2023-05-12T13:18:49.393Z,38.90
2023-05-12T13:21:18.956Z,37.70
2023-05-12T13:23:48.818Z,38.00
2023-05-12T13:26:18.107Z,38.80
2023-05-12T13:28:47.701Z,38.40
2023-05-12T13:31:17.034Z,38.50
2023-05-12T13:33:48.152Z,37.90
2023-05-12T13:36:17.896Z,38.20
2023-05-12T13:38:47.104Z,38.50
2023-05-12T13:41:16.330Z,37.80
2023-05-12T13:43:45.928Z,37.90
2023-05-12T13:46:15.154Z,37.60
2023-05-12T13:48:45.085Z,37.50
2023-05-12T13:51:15.879Z,37.50
2023-05-12T13:53:46.014Z,37.80
2023-05-12T13:56:17.425Z,38.70
2023-05-12T13:58:47.460Z,38.50
2023-05-12T14:01:17.686Z,38.00
2023-05-12T14:03:47.292Z,38.40
2023-05-12T14:06:17.996Z,38.50
2023-05-12T14:08:48.638Z,38.00
2023-05-12T14:11:18.280Z,38.10
2023-05-12T14:13:47.985Z,37.90
2023-05-12T14:16:17.444Z,37.80
2023-05-12T14:18:47.223Z,38.40
2023-05-12T14:21:17.904Z,37.90
2023-05-12T14:23:48.329Z,39.00
2023-05-12T14:26:19.680Z,38.60
2023-05-12T14:28:49.484Z,37.70
2023-05-12T14:31:19.039Z,38.50
2023-05-12T14:33:48.782Z,38.10
2023-05-12T14:36:19.476Z,38.60
2023-05-12T14:38:49.874Z,38.40
2023-05-12T14:41:19.124Z,38.40
2023-05-12T14:43:49.050Z,38.50
2023-05-12T14:46:18.465Z,38.30
2023-05-12T14:48:49.127Z,38.70
2023-05-12T14:51:19.861Z,38.10
2023-05-12T14:53:49.520Z,38.50
2023-05-12T14:56:18.723Z,37.80
2023-05-12T14:58:48.408Z,38.00
2023-05-12T15:01:17.910Z,37.70
2023-05-12T15:03:48.015Z,41.30
2023-05-12T15:06:18.785Z,42.10
2023-05-12T15:08:48.362Z,41.50
2023-05-12T15:11:17.762Z,41.00
2023-05-12T15:13:47.886Z,42.30
2023-05-12T15:16:17.142Z,42.60
2023-05-12T15:18:46.962Z,43.20
2023-05-12T15:21:17.477Z,42.40
2023-05-12T15:23:48.617Z,42.50
2023-05-12T15:26:32.127Z,42.50
2023-05-12T15:29:04.162Z,42.90
2023-05-12T15:31:33.532Z,42.90
2023-05-12T15:34:03.225Z,42.20
2023-05-12T15:36:32.558Z,43.10
2023-05-12T15:39:05.359Z,43.30
2023-05-12T15:41:34.631Z,43.90
2023-05-12T15:44:04.320Z,44.10
2023-05-12T15:46:33.598Z,44.40
2023-05-12T15:49:04.059Z,44.20
2023-05-12T15:51:34.229Z,44.30
2023-05-12T15:54:06.938Z,44.40
2023-05-12T15:56:37.707Z,44.90
2023-05-12T15:59:07.704Z,45.50
2023-05-12T16:01:37.181Z,46.10
2023-05-12T16:04:07.256Z,46.20
2023-05-12T16:06:36.619Z,46.70
2023-05-12T16:09:08.028Z,47.10
2023-05-12T16:11:37.646Z,47.40
2023-05-12T16:14:07.631Z,47.40
2023-05-12T16:16:37.791Z,47.50
2023-05-12T16:19:07.649Z,47.30
2023-05-12T16:21:36.939Z,47.40
2023-05-12T16:24:09.360Z,47.40
2023-05-12T16:26:38.739Z,47.80
2023-05-12T16:29:08.706Z,47.80
2023-05-12T16:31:38.086Z,48.10
2023-05-12T16:34:08.054Z,49.40
2023-05-12T16:36:37.488Z,48.80
2023-05-12T16:39:09.059Z,49.20
2023-05-12T16:41:38.353Z,49.80
2023-05-12T16:44:08.181Z,50.30
2023-05-12T16:46:39.301Z,50.10
2023-05-12T16:49:10.668Z,50.30
2023-05-12T16:51:39.880Z,50.50
2023-05-12T16:54:11.597Z,50.80
2023-05-12T16:56:40.795Z,51.40
2023-05-12T16:59:10.425Z,51.30
2023-05-12T17:01:39.974Z,52.10
2023-05-12T17:04:12.072Z,52.50
2023-05-12T17:06:41.547Z,52.00
2023-05-12T17:09:13.000Z,52.40
2023-05-12T17:11:42.366Z,53.10
2023-05-12T17:14:12.726Z,53.20
2023-05-12T17:16:42.170Z,53.70
2023-05-12T17:19:14.670Z,53.90
2023-05-12T17:21:44.155Z,54.10
2023-05-12T17:24:15.348Z,55.20
2023-05-12T17:26:45.121Z,56.40
2023-05-12T17:29:14.811Z,57.60
2023-05-12T17:31:44.389Z,58.80
2023-05-12T17:34:14.027Z,60.20
2023-05-12T17:36:43.924Z,61.00
2023-05-12T17:39:16.273Z,62.30
2023-05-12T17:41:45.861Z,63.00
2023-05-12T17:44:16.120Z,63.40
2023-05-12T17:46:45.443Z,64.50
2023-05-12T17:49:15.674Z,65.30
2023-05-12T17:51:44.998Z,66.00
2023-05-12T17:54:16.118Z,67.20
2023-05-12T17:56:45.405Z,67.90
2023-05-12T17:59:15.325Z,69.40
2023-05-12T18:01:44.628Z,70.50
2023-05-12T18:04:14.548Z,72.30
2023-05-12T18:06:44.120Z,73.40
2023-05-12T18:09:15.811Z,74.40
2023-05-12T18:11:45.079Z,76.30
2023-05-12T18:14:14.876Z,77.90
2023-05-12T18:16:44.451Z,79.60
2023-05-12T18:19:14.123Z,81.30
2023-05-12T18:21:43.533Z,83.00
2023-05-12T18:24:14.724Z,85.00
2023-05-12T18:26:43.581Z,89.00
2023-05-12T18:29:13.833Z,92.00
2023-05-12T18:31:44.471Z,94.20
2023-05-12T18:34:14.372Z,95.50
2023-05-12T18:36:43.606Z,96.20
2023-05-12T18:39:15.177Z,97.30
2023-05-12T18:41:45.403Z,98.40
2023-05-12T18:44:15.131Z,99.20
2023-05-12T18:46:44.545Z,99.50
2023-05-12T18:49:14.190Z,99.90
2023-05-12T18:51:43.655Z,99.90
2023-05-12T18:54:14.719Z,99.90
2023-05-12T18:56:43.955Z,99.90
2023-05-12T18:59:13.649Z,99.90
2023-05-12T19:01:42.876Z,99.90
2023-05-12T19:04:13.085Z,99.90
2023-05-12T19:06:43.032Z,99.90
2023-05-12T19:09:12.788Z,99.90
2023-05-12T19:11:44.627Z,99.90
2023-05-12T19:14:16.159Z,99.90
2023-05-12T19:16:46.899Z,99.90
2023-05-12T19:19:16.624Z,99.90
2023-05-12T19:21:46.205Z,99.90
2023-05-12T19:24:15.847Z,99.90
2023-05-12T19:26:46.575Z,99.90
2023-05-12T19:29:16.176Z,99.90
2023-05-12T19:31:45.816Z,99.90
2023-05-12T19:34:15.750Z,99.90
2023-05-12T19:36:45.117Z,99.90
2023-05-12T19:39:14.794Z,99.90
2023-05-12T19:41:45.670Z,99.90
2023-05-12T19:44:15.758Z,99.90
2023-05-12T19:46:47.206Z,99.90
2023-05-12T19:49:17.191Z,99.90
2023-05-12T19:51:46.608Z,99.90
2023-05-12T19:54:16.435Z,99.90
2023-05-12T19:56:47.166Z,99.90
2023-05-12T19:59:16.765Z,99.90
2023-05-12T20:01:46.230Z,99.90
2023-05-12T20:04:15.868Z,99.90
2023-05-12T20:06:45.275Z,99.90
2023-05-12T20:09:14.897Z,99.90
2023-05-12T20:11:46.196Z,99.90
2023-05-12T20:14:16.264Z,99.90
2023-05-12T20:16:45.726Z,99.90
2023-05-12T20:19:15.342Z,99.90
2023-05-12T20:21:44.965Z,99.90
2023-05-12T20:24:14.562Z,99.90
2023-05-12T20:26:43.950Z,99.90
2023-05-12T20:29:21.016Z,99.90
2023-05-12T20:31:51.088Z,99.90
2023-05-12T20:34:21.530Z,99.90
2023-05-12T20:36:50.807Z,99.90
2023-05-12T20:39:20.820Z,99.90
2023-05-12T20:41:50.054Z,99.90
2023-05-12T20:44:21.524Z,99.90
2023-05-12T20:46:50.852Z,99.90
2023-05-12T20:49:20.513Z,99.90
2023-05-12T20:51:49.799Z,99.90
2023-05-12T20:54:19.852Z,99.90
2023-05-12T20:56:49.350Z,99.90
2023-05-12T20:59:20.605Z,99.90
2023-05-12T21:01:49.846Z,99.90
2023-05-12T21:04:19.487Z,99.90
2023-05-12T21:06:48.784Z,99.90
2023-05-12T21:09:18.958Z,99.90
2023-05-12T21:11:48.220Z,99.90
2023-05-12T21:14:18.065Z,99.90
2023-05-12T21:16:48.807Z,99.90
2023-05-12T21:19:18.786Z,99.90
2023-05-12T21:21:48.228Z,99.90
2023-05-12T21:24:18.171Z,99.90
2023-05-12T21:26:47.988Z,99.90
2023-05-12T21:29:17.995Z,99.90
2023-05-12T21:31:48.851Z,99.90
2023-05-12T21:34:18.437Z,99.90
2023-05-12T21:36:47.614Z,99.90
2023-05-12T21:39:17.367Z,99.90
2023-05-12T21:41:46.609Z,99.90
2023-05-12T21:44:16.619Z,99.90
2023-05-12T21:46:46.137Z,99.90
2023-05-12T21:49:17.453Z,99.90
2023-05-12T21:51:46.379Z,99.90
2023-05-12T21:54:16.354Z,99.90
2023-05-12T21:56:45.556Z,99.90
2023-05-12T21:59:17.298Z,99.90
2023-05-12T22:01:46.697Z,99.90
2023-05-12T22:04:18.215Z,99.90
2023-05-12T22:06:47.642Z,99.90
2023-05-12T22:09:17.233Z,99.90
2023-05-12T22:11:46.999Z,99.90
2023-05-12T22:14:16.598Z,99.90
2023-05-12T22:16:45.906Z,99.90
2023-05-12T22:19:17.017Z,99.90
2023-05-12T22:21:48.451Z,99.90
2023-05-12T22:24:18.293Z,99.90
2023-05-12T22:26:47.791Z,99.90
2023-05-12T22:29:17.420Z,99.90
2023-05-12T22:31:46.795Z,99.90
2023-05-12T22:34:16.640Z,99.90
2023-05-12T22:36:47.725Z,99.90
2023-05-12T22:39:17.886Z,99.90
2023-05-12T22:41:47.147Z,99.90
2023-05-12T22:44:16.713Z,99.90
2023-05-12T22:46:46.187Z,99.90
2023-05-12T22:49:15.762Z,99.90
2023-05-12T22:51:45.031Z,99.90
2023-05-12T22:54:16.422Z,99.90
2023-05-12T22:56:46.557Z,99.90
2023-05-12T22:59:16.115Z,99.90
2023-05-12T23:01:45.363Z,99.90
2023-05-12T23:04:14.979Z,99.90
2023-05-12T23:06:44.699Z,99.90
2023-05-12T23:09:16.342Z,99.90
2023-05-12T23:11:45.622Z,99.90
2023-05-12T23:14:15.231Z,99.90
2023-05-12T23:16:44.544Z,99.90
2023-05-12T23:19:15.338Z,99.90
2023-05-12T23:21:44.748Z,99.90
2023-05-12T23:24:15.781Z,99.90
2023-05-12T23:26:45.004Z,99.90
2023-05-12T23:29:14.772Z,99.90
2023-05-12T23:31:44.040Z,99.90
2023-05-12T23:34:13.883Z,99.90
2023-05-12T23:36:43.085Z,99.90
2023-05-12T23:39:13.517Z,99.90
2023-05-12T23:41:45.749Z,99.90
2023-05-12T23:44:15.409Z,99.90
2023-05-12T23:46:44.750Z,99.90
2023-05-12T23:49:14.359Z,99.90
2023-05-12T23:51:43.772Z,99.90
2023-05-12T23:54:13.752Z,99.90
2023-05-12T23:56:44.673Z,99.90
2023-05-12T23:59:14.296Z,99.90
